sensor_id;sensor_type;location;lat;lon;timestamp;pressure;altitude;pressure_sealevel;temperature;humidity
38285;BME280;24088;42.664;23.354;2022-11-20T20:49:24;94243.59;;;12.74;100.00
38285;BME280;24088;42.664;23.354;2022-11-20T20:50:26;94232.03;;;12.97;100.00
38285;BME280;24088;42.664;23.354;2022-11-20T20:51:26;94238.78;;;12.96;100.00
38285;BME280;24088;42.664;23.354;2022-11-20T20:52:28;94238.28;;;12.89;100.00
38285;BME280;24088;42.664;23.354;2022-11-20T20:53:29;94242.72;;;12.86;100.00
38285;BME280;24088;42.664;23.354;2022-11-20T20:54:30;94240.06;;;12.73;100.00
38285;BME280;24088;42.664;23.354;2022-11-20T20:55:32;94243.66;;;12.92;100.00
38285;BME280;24088;42.664;23.354;2022-11-20T20:56:34;94237.97;;;13.27;100.00
38285;BME280;24088;42.664;23.354;2022-11-20T20:57:36;94236.34;;;12.98;100.00
38285;BME280;24088;42.664;23.354;2022-11-20T20:58:36;94226.47;;;12.79;100.00
38285;BME280;24088;42.664;23.354;2022-11-20T20:59:38;94213.47;;;12.79;100.00
38285;BME280;24088;42.664;23.354;2022-11-20T21:00:38;94204.34;;;13.01;100.00
38285;BME280;24088;42.664;23.354;2022-11-20T21:01:40;94204.16;;;12.86;100.00
38285;BME280;24088;42.664;23.354;2022-11-20T21:02:40;94203.69;;;12.88;100.00
38285;BME280;24088;42.664;23.354;2022-11-20T21:03:42;94190.16;;;13.12;100.00
38285;BME280;24088;42.664;23.354;2022-11-20T21:04:44;94199.69;;;13.20;100.00
38285;BME280;24088;42.664;23.354;2022-11-20T21:05:45;94200.78;;;13.32;100.00
38285;BME280;24088;42.664;23.354;2022-11-20T21:06:46;94212.22;;;13.12;100.00
38285;BME280;24088;42.664;23.354;2022-11-20T21:07:47;94207.81;;;12.83;100.00
38285;BME280;24088;42.664;23.354;2022-11-20T21:09:06;94203.44;;;13.04;100.00
38285;BME280;24088;42.664;23.354;2022-11-20T21:10:08;94201.03;;;13.15;100.00
38285;BME280;24088;42.664;23.354;2022-11-20T21:11:09;94197.47;;;13.06;100.00
38285;BME280;24088;42.664;23.354;2022-11-20T21:12:11;94204.94;;;12.87;100.00
38285;BME280;24088;42.664;23.354;2022-11-20T21:13:11;94192.75;;;13.06;100.00
38285;BME280;24088;42.664;23.354;2022-11-20T21:14:13;94198.28;;;13.06;100.00
38285;BME280;24088;42.664;23.354;2022-11-20T21:15:14;94196.66;;;12.87;100.00
38285;BME280;24088;42.664;23.354;2022-11-20T21:16:16;94193.97;;;13.14;100.00
38285;BME280;24088;42.664;23.354;2022-11-20T21:17:18;94184.16;;;13.04;100.00
38285;BME280;24088;42.664;23.354;2022-11-20T21:18:20;94187.50;;;12.90;100.00
38285;BME280;24088;42.664;23.354;2022-11-20T21:19:21;94178.66;;;13.04;100.00
38285;BME280;24088;42.664;23.354;2022-11-20T21:20:24;94169.09;;;12.77;100.00
38285;BME280;24088;42.664;23.354;2022-11-20T21:21:43;94164.50;;;12.84;100.00
38285;BME280;24088;42.664;23.354;2022-11-20T21:22:58;94165.75;;;12.42;100.00
38285;BME280;24088;42.664;23.354;2022-11-20T21:24:00;94165.88;;;12.39;100.00
38285;BME280;24088;42.664;23.354;2022-11-20T21:25:01;94153.75;;;12.27;100.00
38285;BME280;24088;42.664;23.354;2022-11-20T21:26:03;94151.53;;;12.44;100.00
38285;BME280;24088;42.664;23.354;2022-11-20T21:27:05;94153.44;;;12.65;100.00
38285;BME280;24088;42.664;23.354;2022-11-20T21:28:06;94146.66;;;12.48;100.00
38285;BME280;24088;42.664;23.354;2022-11-20T21:29:07;94149.72;;;12.19;100.00
38285;BME280;24088;42.664;23.354;2022-11-20T21:30:09;94160.84;;;12.15;100.00
38285;BME280;24088;42.664;23.354;2022-11-20T21:31:10;94159.75;;;12.03;100.00
38285;BME280;24088;42.664;23.354;2022-11-20T21:32:13;94161.25;;;12.05;100.00
38285;BME280;24088;42.664;23.354;2022-11-20T21:33:15;94158.16;;;12.24;100.00
38285;BME280;24088;42.664;23.354;2022-11-20T21:34:16;94158.44;;;12.17;100.00
38285;BME280;24088;42.664;23.354;2022-11-20T21:35:17;94151.31;;;12.29;100.00
38285;BME280;24088;42.664;23.354;2022-11-20T21:36:20;94152.06;;;12.61;100.00
38285;BME280;24088;42.664;23.354;2022-11-20T21:37:21;94143.09;;;12.88;100.00
38285;BME280;24088;42.664;23.354;2022-11-20T21:38:23;94148.63;;;12.88;100.00
38285;BME280;24088;42.664;23.354;2022-11-20T21:39:23;94143.59;;;12.95;100.00
38285;BME280;24088;42.664;23.354;2022-11-20T21:40:25;94134.22;;;12.93;100.00
38285;BME280;24088;42.664;23.354;2022-11-20T21:41:26;94138.94;;;12.74;100.00
38285;BME280;24088;42.664;23.354;2022-11-20T21:42:29;94147.06;;;12.77;100.00
38285;BME280;24088;42.664;23.354;2022-11-20T21:43:30;94147.50;;;12.76;100.00
38285;BME280;24088;42.664;23.354;2022-11-20T21:44:31;94141.66;;;12.65;100.00
38285;BME280;24088;42.664;23.354;2022-11-20T21:45:32;94135.09;;;12.71;100.00
38285;BME280;24088;42.664;23.354;2022-11-20T21:46:33;94127.31;;;12.70;100.00
38285;BME280;24088;42.664;23.354;2022-11-20T21:47:34;94129.25;;;12.60;100.00
38285;BME280;24088;42.664;23.354;2022-11-20T21:48:36;94136.53;;;12.45;100.00
38285;BME280;24088;42.664;23.354;2022-11-20T21:49:38;94132.56;;;12.46;100.00
38285;BME280;24088;42.664;23.354;2022-11-20T21:50:39;94126.19;;;12.58;100.00
38285;BME280;24088;42.664;23.354;2022-11-20T21:51:42;94118.47;;;12.35;100.00
38285;BME280;24088;42.664;23.354;2022-11-20T21:52:42;94117.16;;;12.17;100.00
38285;BME280;24088;42.664;23.354;2022-11-20T21:53:44;94102.28;;;12.06;100.00
38285;BME280;24088;42.664;23.354;2022-11-20T21:54:45;94094.44;;;12.26;100.00
38285;BME280;24088;42.664;23.354;2022-11-20T21:55:51;94089.56;;;12.30;100.00
38285;BME280;24088;42.664;23.354;2022-11-20T21:56:52;94078.09;;;12.41;100.00
38285;BME280;24088;42.664;23.354;2022-11-20T21:57:53;94066.06;;;12.47;100.00
38285;BME280;24088;42.664;23.354;2022-11-20T21:58:54;94060.84;;;12.49;100.00
38285;BME280;24088;42.664;23.354;2022-11-20T21:59:55;94068.63;;;12.42;100.00
38285;BME280;24088;42.664;23.354;2022-11-20T22:00:56;94039.44;;;12.44;100.00
38285;BME280;24088;42.664;23.354;2022-11-20T22:01:57;94037.03;;;12.56;100.00
38285;BME280;24088;42.664;23.354;2022-11-20T22:02:59;94029.84;;;12.67;100.00
38285;BME280;24088;42.664;23.354;2022-11-20T22:04:01;94037.16;;;12.52;100.00
38285;BME280;24088;42.664;23.354;2022-11-20T22:05:03;94034.69;;;12.45;100.00
38285;BME280;24088;42.664;23.354;2022-11-20T22:06:04;94033.81;;;12.75;100.00
38285;BME280;24088;42.664;23.354;2022-11-20T22:07:07;94041.66;;;12.68;100.00
38285;BME280;24088;42.664;23.354;2022-11-20T22:08:09;94042.41;;;12.68;100.00
38285;BME280;24088;42.664;23.354;2022-11-20T22:09:09;94043.31;;;12.65;100.00
38285;BME280;24088;42.664;23.354;2022-11-20T22:10:11;94043.78;;;12.64;100.00
38285;BME280;24088;42.664;23.354;2022-11-20T22:11:12;94035.69;;;12.78;100.00
38285;BME280;24088;42.664;23.354;2022-11-20T22:12:14;94040.28;;;12.72;100.00
38285;BME280;24088;42.664;23.354;2022-11-20T22:13:14;94037.81;;;12.74;100.00
38285;BME280;24088;42.664;23.354;2022-11-20T22:14:33;94026.78;;;12.74;100.00
38285;BME280;24088;42.664;23.354;2022-11-20T22:15:34;94028.31;;;12.85;100.00
38285;BME280;24088;42.664;23.354;2022-11-20T22:16:35;94016.09;;;12.86;100.00
38285;BME280;24088;42.664;23.354;2022-11-20T22:17:37;94013.22;;;12.89;100.00
38285;BME280;24088;42.664;23.354;2022-11-20T22:18:56;94013.22;;;12.89;100.00
38285;BME280;24088;42.664;23.354;2022-11-20T22:19:58;93999.25;;;12.84;100.00
38285;BME280;24088;42.664;23.354;2022-11-20T22:21:01;93997.13;;;12.88;100.00
38285;BME280;24088;42.664;23.354;2022-11-20T22:22:03;93990.53;;;12.67;100.00
38285;BME280;24088;42.664;23.354;2022-11-20T22:23:06;93990.38;;;12.61;100.00
38285;BME280;24088;42.664;23.354;2022-11-20T22:24:06;93999.25;;;12.47;100.00
38285;BME280;24088;42.664;23.354;2022-11-20T22:25:08;93995.88;;;12.52;100.00
38285;BME280;24088;42.664;23.354;2022-11-20T22:26:09;93987.72;;;12.30;100.00
38285;BME280;24088;42.664;23.354;2022-11-20T22:27:11;93990.78;;;12.41;100.00
38285;BME280;24088;42.664;23.354;2022-11-20T22:28:13;93988.78;;;12.33;100.00
38285;BME280;24088;42.664;23.354;2022-11-20T22:29:13;93978.13;;;12.44;100.00
38285;BME280;24088;42.664;23.354;2022-11-20T22:30:15;93978.72;;;12.30;100.00
38285;BME280;24088;42.664;23.354;2022-11-20T22:31:16;93975.09;;;12.51;100.00
38285;BME280;24088;42.664;23.354;2022-11-20T22:32:18;93979.97;;;12.38;100.00
38285;BME280;24088;42.664;23.354;2022-11-20T22:33:18;93974.41;;;12.28;100.00
38285;BME280;24088;42.664;23.354;2022-11-20T22:34:20;93975.59;;;12.09;100.00
38285;BME280;24088;42.664;23.354;2022-11-20T22:35:21;93974.00;;;11.90;100.00
38285;BME280;24088;42.664;23.354;2022-11-20T22:36:22;93983.72;;;11.82;100.00
38285;BME280;24088;42.664;23.354;2022-11-20T22:37:24;93981.69;;;12.04;100.00
38285;BME280;24088;42.664;23.354;2022-11-20T22:38:26;93974.03;;;11.99;100.00
38285;BME280;24088;42.664;23.354;2022-11-20T22:39:28;93972.72;;;12.13;100.00
38285;BME280;24088;42.664;23.354;2022-11-20T22:40:30;93970.25;;;12.15;100.00
38285;BME280;24088;42.664;23.354;2022-11-20T22:41:31;93957.47;;;12.30;100.00
38285;BME280;24088;42.664;23.354;2022-11-20T22:42:33;93945.63;;;12.11;100.00
38285;BME280;24088;42.664;23.354;2022-11-20T22:43:33;93950.50;;;12.07;100.00
38285;BME280;24088;42.664;23.354;2022-11-20T22:44:35;93946.34;;;11.84;100.00
38285;BME280;24088;42.664;23.354;2022-11-20T22:45:35;93946.88;;;12.10;100.00
38285;BME280;24088;42.664;23.354;2022-11-20T22:46:37;93946.09;;;12.00;100.00
38285;BME280;24088;42.664;23.354;2022-11-20T22:47:37;93930.22;;;12.05;100.00
38285;BME280;24088;42.664;23.354;2022-11-20T22:48:39;93931.00;;;12.23;100.00
38285;BME280;24088;42.664;23.354;2022-11-20T22:49:40;93912.31;;;11.91;100.00
38285;BME280;24088;42.664;23.354;2022-11-20T22:50:41;93894.25;;;11.90;100.00
38285;BME280;24088;42.664;23.354;2022-11-20T22:51:42;93892.66;;;12.29;100.00
38285;BME280;24088;42.664;23.354;2022-11-20T22:52:44;93890.50;;;12.42;100.00
38285;BME280;24088;42.664;23.354;2022-11-20T22:53:46;93886.06;;;12.54;100.00
38285;BME280;24088;42.664;23.354;2022-11-20T22:54:47;93886.69;;;12.49;100.00
38285;BME280;24088;42.664;23.354;2022-11-20T22:55:48;93883.63;;;12.56;100.00
38285;BME280;24088;42.664;23.354;2022-11-20T22:56:49;93885.47;;;12.59;100.00
38285;BME280;24088;42.664;23.354;2022-11-20T22:57:51;93878.88;;;12.57;100.00
38285;BME280;24088;42.664;23.354;2022-11-20T22:58:51;93872.44;;;12.23;100.00
38285;BME280;24088;42.664;23.354;2022-11-20T22:59:53;93866.34;;;12.28;100.00
38285;BME280;24088;42.664;23.354;2022-11-20T23:00:54;93854.88;;;12.48;100.00
38285;BME280;24088;42.664;23.354;2022-11-20T23:01:55;93858.53;;;12.54;100.00
38285;BME280;24088;42.664;23.354;2022-11-20T23:02:57;93862.22;;;12.51;100.00
38285;BME280;24088;42.664;23.354;2022-11-20T23:03:58;93862.38;;;12.47;100.00
38285;BME280;24088;42.664;23.354;2022-11-20T23:05:00;93852.25;;;12.63;100.00
38285;BME280;24088;42.664;23.354;2022-11-20T23:06:00;93861.91;;;12.40;100.00
38285;BME280;24088;42.664;23.354;2022-11-20T23:07:02;93847.38;;;12.48;100.00
38285;BME280;24088;42.664;23.354;2022-11-20T23:08:02;93841.13;;;12.48;100.00
38285;BME280;24088;42.664;23.354;2022-11-20T23:09:06;93844.63;;;12.58;100.00
38285;BME280;24088;42.664;23.354;2022-11-20T23:10:07;93844.31;;;12.56;100.00
38285;BME280;24088;42.664;23.354;2022-11-20T23:11:09;93845.72;;;12.51;100.00
38285;BME280;24088;42.664;23.354;2022-11-20T23:12:10;93843.38;;;12.59;100.00
38285;BME280;24088;42.664;23.354;2022-11-20T23:13:11;93835.75;;;12.72;100.00
38285;BME280;24088;42.664;23.354;2022-11-20T23:14:13;93840.03;;;12.64;100.00
38285;BME280;24088;42.664;23.354;2022-11-20T23:15:14;93835.63;;;12.39;100.00
38285;BME280;24088;42.664;23.354;2022-11-20T23:16:15;93841.56;;;12.10;100.00
38285;BME280;24088;42.664;23.354;2022-11-20T23:17:18;93850.44;;;12.05;100.00
38285;BME280;24088;42.664;23.354;2022-11-20T23:18:19;93855.81;;;12.26;100.00
38285;BME280;24088;42.664;23.354;2022-11-20T23:19:21;93856.56;;;12.27;100.00
38285;BME280;24088;42.664;23.354;2022-11-20T23:20:21;93853.66;;;12.49;100.00
38285;BME280;24088;42.664;23.354;2022-11-20T23:21:23;93846.31;;;12.55;100.00
38285;BME280;24088;42.664;23.354;2022-11-20T23:22:24;93834.53;;;12.54;100.00
38285;BME280;24088;42.664;23.354;2022-11-20T23:23:25;93837.25;;;12.73;100.00
38285;BME280;24088;42.664;23.354;2022-11-20T23:24:27;93831.41;;;12.89;100.00
38285;BME280;24088;42.664;23.354;2022-11-20T23:25:29;93827.00;;;12.83;100.00
38285;BME280;24088;42.664;23.354;2022-11-20T23:26:31;93817.53;;;12.65;100.00
38285;BME280;24088;42.664;23.354;2022-11-20T23:27:32;93823.19;;;12.62;100.00
38285;BME280;24088;42.664;23.354;2022-11-20T23:28:33;93820.13;;;12.69;100.00
38285;BME280;24088;42.664;23.354;2022-11-20T23:29:35;93814.34;;;12.58;100.00
38285;BME280;24088;42.664;23.354;2022-11-20T23:30:35;93810.50;;;12.73;100.00
38285;BME280;24088;42.664;23.354;2022-11-20T23:31:37;93803.88;;;12.80;100.00
38285;BME280;24088;42.664;23.354;2022-11-20T23:32:37;93798.69;;;12.82;100.00
38285;BME280;24088;42.664;23.354;2022-11-20T23:33:39;93809.38;;;12.80;100.00
38285;BME280;24088;42.664;23.354;2022-11-20T23:34:40;93795.81;;;12.67;100.00
38285;BME280;24088;42.664;23.354;2022-11-20T23:35:45;93779.88;;;12.81;100.00
38285;BME280;24088;42.664;23.354;2022-11-20T23:36:45;93765.31;;;12.89;100.00
38285;BME280;24088;42.664;23.354;2022-11-20T23:37:47;93761.13;;;12.61;100.00
38285;BME280;24088;42.664;23.354;2022-11-20T23:38:47;93759.47;;;12.36;100.00
38285;BME280;24088;42.664;23.354;2022-11-20T23:39:50;93748.78;;;12.19;100.00
38285;BME280;24088;42.664;23.354;2022-11-20T23:40:51;93761.03;;;12.18;100.00
38285;BME280;24088;42.664;23.354;2022-11-20T23:41:52;93755.06;;;12.11;100.00
38285;BME280;24088;42.664;23.354;2022-11-20T23:42:53;93763.03;;;11.99;100.00
38285;BME280;24088;42.664;23.354;2022-11-20T23:44:12;93772.03;;;12.09;100.00
38285;BME280;24088;42.664;23.354;2022-11-20T23:45:13;93774.63;;;12.22;100.00
38285;BME280;24088;42.664;23.354;2022-11-20T23:46:13;93782.25;;;12.36;100.00
38285;BME280;24088;42.664;23.354;2022-11-20T23:47:15;93775.06;;;12.39;100.00
38285;BME280;24088;42.664;23.354;2022-11-20T23:48:16;93778.75;;;12.36;100.00
38285;BME280;24088;42.664;23.354;2022-11-20T23:49:18;93787.59;;;12.40;100.00
38285;BME280;24088;42.664;23.354;2022-11-20T23:50:19;93784.84;;;12.49;100.00
38285;BME280;24088;42.664;23.354;2022-11-20T23:51:20;93786.38;;;12.59;100.00
38285;BME280;24088;42.664;23.354;2022-11-20T23:52:21;93786.19;;;12.72;100.00
38285;BME280;24088;42.664;23.354;2022-11-20T23:53:24;93779.88;;;12.81;100.00
38285;BME280;24088;42.664;23.354;2022-11-20T23:54:25;93774.94;;;12.85;100.00
38285;BME280;24088;42.664;23.354;2022-11-20T23:55:27;93780.25;;;12.97;100.00
38285;BME280;24088;42.664;23.354;2022-11-20T23:56:29;93781.19;;;13.03;100.00
38285;BME280;24088;42.664;23.354;2022-11-20T23:57:29;93777.69;;;12.85;100.00
38285;BME280;24088;42.664;23.354;2022-11-20T23:58:31;93776.81;;;12.78;100.00
38285;BME280;24088;42.664;23.354;2022-11-20T23:59:33;93784.47;;;12.74;100.00
